createdAt,value
2023-04-21T00:00:20.476Z,7.25
2023-04-21T00:02:48.661Z,6.88
2023-04-21T00:05:16.173Z,7.32
2023-04-21T00:07:43.909Z,6.63
2023-04-21T00:10:12.392Z,7.50
2023-04-21T00:12:40.149Z,7.10
2023-04-21T00:15:11.631Z,6.65
2023-04-21T00:17:39.552Z,7.32
2023-04-21T00:20:07.924Z,7.22
2023-04-21T00:22:35.298Z,8.02
2023-04-21T00:25:02.997Z,7.47
2023-04-21T00:27:30.149Z,8.30
2023-04-21T00:29:57.587Z,8.25
2023-04-21T00:32:24.952Z,8.40
2023-04-21T00:34:54.839Z,7.28
2023-04-21T00:37:22.123Z,7.78
2023-04-21T00:39:49.361Z,6.18
2023-04-21T00:42:17.899Z,6.90
2023-04-21T00:44:45.320Z,6.65
2023-04-21T00:47:12.934Z,7.20
2023-04-21T00:49:40.657Z,6.65
2023-04-21T00:52:09.216Z,6.88
2023-04-21T00:54:36.995Z,7.93
2023-04-21T00:57:04.977Z,8.02
2023-04-21T00:59:32.327Z,7.82
2023-04-21T01:01:59.759Z,6.78
2023-04-21T01:04:27.533Z,8.13
2023-04-21T01:06:54.929Z,8.07
2023-04-21T01:09:24.173Z,7.30
2023-04-21T01:12:27.150Z,7.07
2023-04-21T01:14:54.266Z,7.65
2023-04-21T01:17:21.859Z,9.05
2023-04-21T01:19:50.730Z,7.88
2023-04-21T01:22:18.432Z,6.72
2023-04-21T01:24:48.301Z,7.78
2023-04-21T01:27:20.468Z,8.70
2023-04-21T01:29:52.317Z,8.13
2023-04-21T01:32:26.681Z,8.98
2023-04-21T01:34:54.764Z,7.40
2023-04-21T01:37:26.651Z,8.60
2023-04-21T01:39:56.674Z,8.07
2023-04-21T01:42:26.388Z,8.38
2023-04-21T01:44:55.451Z,6.78
2023-04-21T01:47:23.734Z,7.10
2023-04-21T01:49:51.073Z,6.97
2023-04-21T01:52:18.409Z,7.15
2023-04-21T01:54:45.760Z,7.65
2023-04-21T01:57:13.470Z,7.28
2023-04-21T01:59:41.121Z,6.20
2023-04-21T02:02:08.961Z,7.20
2023-04-21T02:04:36.789Z,7.22
2023-04-21T02:07:04.070Z,11.10
2023-04-21T02:09:32.037Z,8.15
2023-04-21T02:11:59.701Z,7.85
2023-04-21T02:14:26.972Z,7.03
2023-04-21T02:16:56.507Z,8.15
2023-04-21T02:19:25.971Z,7.25
2023-04-21T02:21:53.173Z,7.90
2023-04-21T02:24:20.671Z,7.68
2023-04-21T02:26:51.248Z,7.22
2023-04-21T02:29:18.852Z,6.50
2023-04-21T02:31:57.764Z,9.57
2023-04-21T02:34:27.255Z,7.82
2023-04-21T02:36:54.804Z,6.72
2023-04-21T02:39:22.169Z,7.22
2023-04-21T02:41:49.283Z,7.97
2023-04-21T02:44:16.788Z,6.57
2023-04-21T02:46:44.544Z,8.75
2023-04-21T02:49:12.149Z,8.45
2023-04-21T02:51:39.347Z,9.63
2023-04-21T02:54:06.649Z,8.10
2023-04-21T02:56:36.575Z,7.95
2023-04-21T02:59:03.762Z,12.20
2023-04-21T03:01:31.074Z,10.35
2023-04-21T03:03:58.736Z,8.32
2023-04-21T03:06:26.022Z,8.32
2023-04-21T03:08:53.191Z,8.48
2023-04-21T03:11:20.332Z,8.07
2023-04-21T03:13:47.605Z,7.95
2023-04-21T03:16:14.889Z,7.55
2023-04-21T03:18:42.202Z,8.43
2023-04-21T03:21:09.737Z,8.07
2023-04-21T03:23:37.621Z,7.22
2023-04-21T03:26:08.555Z,8.65
2023-04-21T03:28:35.907Z,6.97
2023-04-21T03:31:03.082Z,8.48
2023-04-21T03:33:30.471Z,8.23
2023-04-21T03:35:57.798Z,8.40
2023-04-21T03:38:25.472Z,7.70
2023-04-21T03:40:52.567Z,7.97
2023-04-21T03:43:19.788Z,7.90
2023-04-21T03:45:47.104Z,7.47
2023-04-21T03:48:14.347Z,8.18
2023-04-21T03:50:41.716Z,9.60
2023-04-21T03:53:09.409Z,7.57
2023-04-21T03:55:36.760Z,7.95
2023-04-21T03:58:04.073Z,8.02
2023-04-21T04:00:31.441Z,7.85
2023-04-21T04:02:59.039Z,7.47
2023-04-21T04:05:26.697Z,8.45
2023-04-21T04:07:53.939Z,8.10
2023-04-21T04:10:21.574Z,8.25
2023-04-21T04:12:48.916Z,8.77
2023-04-21T04:15:16.412Z,7.75
2023-04-21T04:17:43.849Z,8.77
2023-04-21T04:20:11.270Z,7.38
2023-04-21T04:22:38.717Z,8.38
2023-04-21T04:25:06.425Z,8.27
2023-04-21T04:27:34.654Z,9.30
2023-04-21T04:30:01.878Z,7.53
2023-04-21T04:32:29.290Z,8.32
2023-04-21T04:34:56.561Z,9.45
2023-04-21T04:37:23.737Z,8.90
2023-04-21T04:39:53.940Z,6.68
2023-04-21T04:42:21.505Z,7.18
2023-04-21T04:44:48.891Z,7.57
2023-04-21T04:47:16.150Z,8.23
2023-04-21T04:49:43.945Z,8.63
2023-04-21T04:52:11.287Z,7.75
2023-04-21T04:54:38.576Z,8.65
2023-04-21T04:57:05.951Z,7.05
2023-04-21T04:59:33.286Z,8.30
2023-04-21T05:02:00.770Z,8.27
2023-04-21T05:04:28.650Z,7.88
2023-04-21T05:06:56.390Z,7.60
2023-04-21T05:09:23.611Z,10.93
2023-04-21T05:11:50.795Z,7.05
2023-04-21T05:14:18.447Z,6.63
2023-04-21T05:16:46.311Z,7.38
2023-04-21T05:19:13.461Z,8.20
2023-04-21T05:21:40.948Z,7.03
2023-04-21T05:24:08.139Z,8.32
2023-04-21T05:26:35.672Z,8.13
2023-04-21T05:29:03.112Z,8.32
2023-04-21T05:31:30.686Z,7.55
2023-04-21T05:33:57.988Z,9.27
2023-04-21T05:36:28.115Z,7.22
2023-04-21T05:38:55.372Z,7.50
2023-04-21T05:41:22.912Z,8.38
2023-04-21T05:43:50.206Z,6.22
2023-04-21T05:46:17.626Z,7.90
2023-04-21T05:48:45.081Z,6.70
2023-04-21T05:51:14.242Z,7.20
2023-04-21T05:53:43.126Z,7.28
2023-04-21T05:56:13.120Z,6.97
2023-04-21T05:58:40.488Z,6.95
2023-04-21T06:01:07.801Z,6.35
2023-04-21T06:03:35.499Z,7.07
2023-04-21T06:06:04.514Z,5.78
2023-04-21T06:08:31.962Z,6.60
2023-04-21T06:11:00.542Z,7.28
2023-04-21T06:13:27.956Z,7.15
2023-04-21T06:15:55.762Z,6.30
2023-04-21T06:18:24.429Z,6.72
2023-04-21T06:20:52.382Z,5.57
2023-04-21T06:23:19.563Z,6.65
2023-04-21T06:25:47.067Z,6.03
2023-04-21T06:28:14.647Z,6.50
2023-04-21T06:30:41.882Z,6.35
2023-04-21T06:33:10.076Z,7.00
2023-04-21T06:35:37.753Z,7.05
2023-04-21T06:38:05.061Z,8.38
2023-04-21T06:40:32.424Z,7.53
2023-04-21T06:42:59.721Z,6.13
2023-04-21T06:45:26.912Z,6.25
2023-04-21T06:47:54.119Z,7.05
2023-04-21T06:50:21.926Z,7.70
2023-04-21T06:52:49.205Z,6.72
2023-04-21T06:55:16.496Z,6.18
2023-04-21T06:57:43.838Z,8.80
2023-04-21T07:00:12.492Z,6.57
2023-04-21T07:02:40.030Z,7.43
2023-04-21T07:05:07.753Z,5.90
2023-04-21T07:07:35.047Z,7.13
2023-04-21T07:10:02.281Z,6.40
2023-04-21T07:12:29.654Z,6.57
2023-04-21T07:14:57.101Z,6.30
2023-04-21T07:17:24.290Z,7.82
2023-04-21T07:19:51.548Z,5.65
2023-04-21T07:22:18.542Z,6.15
2023-04-21T07:24:45.791Z,6.93
2023-04-21T07:27:12.987Z,7.28
2023-04-21T07:29:40.302Z,6.38
2023-04-21T07:32:07.748Z,6.32
2023-04-21T07:34:37.691Z,6.93
2023-04-21T07:37:05.079Z,7.88
2023-04-21T07:39:32.701Z,6.25
2023-04-21T07:41:59.961Z,6.90
2023-04-21T07:44:29.523Z,7.38
2023-04-21T07:46:56.867Z,6.15
2023-04-21T07:49:24.137Z,7.20
2023-04-21T07:51:51.449Z,8.30
2023-04-21T07:54:18.829Z,7.10
2023-04-21T07:56:46.344Z,6.50
2023-04-21T07:59:13.508Z,6.22
2023-04-21T08:01:40.904Z,6.30
2023-04-21T08:04:08.336Z,5.97
2023-04-21T08:06:35.730Z,6.63
2023-04-21T08:09:03.075Z,6.40
2023-04-21T08:11:30.359Z,5.93
2023-04-21T08:13:58.124Z,6.20
2023-04-21T08:16:25.298Z,7.45
2023-04-21T08:18:52.492Z,5.90
2023-04-21T08:21:20.043Z,6.28
2023-04-21T08:23:48.149Z,9.18
2023-04-21T08:26:15.903Z,6.40
2023-04-21T08:28:43.336Z,5.35
2023-04-21T08:31:11.827Z,6.50
2023-04-21T08:33:46.730Z,7.75
2023-04-21T08:36:28.410Z,6.63
2023-04-21T08:38:56.861Z,6.75
2023-04-21T08:41:25.738Z,5.70
2023-04-21T08:43:53.612Z,6.45
2023-04-21T08:46:21.941Z,6.25
2023-04-21T08:48:49.391Z,5.93
2023-04-21T08:51:23.670Z,5.03
2023-04-21T08:53:51.201Z,5.63
2023-04-21T08:56:20.823Z,6.07
2023-04-21T08:58:48.061Z,6.38
2023-04-21T09:01:15.351Z,6.07
2023-04-21T09:03:42.798Z,5.93
2023-04-21T09:06:12.914Z,5.18
2023-04-21T09:08:43.673Z,5.60
2023-04-21T09:11:17.447Z,7.05
2023-04-21T09:13:44.875Z,6.05
2023-04-21T09:16:22.405Z,4.78
2023-04-21T09:18:50.725Z,5.50
2023-04-21T09:21:20.567Z,6.97
2023-04-21T09:23:53.089Z,5.30
2023-04-21T09:26:23.379Z,5.90
2023-04-21T09:28:52.235Z,5.63
2023-04-21T09:31:23.962Z,5.65
2023-04-21T09:33:58.729Z,5.68
2023-04-21T09:36:30.810Z,4.70
2023-04-21T09:41:33.395Z,5.32
2023-04-21T09:44:02.053Z,5.60
2023-04-21T09:46:32.547Z,5.85
2023-04-21T09:49:02.059Z,6.22
2023-04-21T09:51:49.083Z,5.60
2023-04-21T09:56:56.733Z,4.80
2023-04-21T09:59:30.362Z,6.10
2023-04-21T10:02:00.111Z,4.43
2023-04-21T10:04:29.422Z,5.45
2023-04-21T10:06:57.352Z,5.88
2023-04-21T10:09:28.091Z,5.57
2023-04-21T10:11:56.063Z,6.25
2023-04-21T10:14:24.022Z,4.75
2023-04-21T10:17:18.185Z,6.38
2023-04-21T10:19:51.283Z,5.07
2023-04-21T10:22:32.529Z,4.93
2023-04-21T10:25:02.438Z,5.32
2023-04-21T10:27:43.621Z,6.35
2023-04-21T10:30:26.941Z,4.40
2023-04-21T10:33:05.256Z,4.75
2023-04-21T10:36:00.585Z,5.72
2023-04-21T10:38:44.085Z,5.10
2023-04-21T10:41:31.312Z,5.40
2023-04-21T10:44:14.269Z,5.38
2023-04-21T10:46:49.822Z,5.55
2023-04-21T10:49:30.930Z,4.55
2023-04-21T10:52:02.849Z,4.40
2023-04-21T10:54:48.441Z,4.57
2023-04-21T10:57:18.059Z,5.05
2023-04-21T10:59:46.572Z,5.15
2023-04-21T11:02:17.056Z,5.07
2023-04-21T11:04:49.105Z,5.10
2023-04-21T11:07:26.135Z,5.25
2023-04-21T11:10:00.744Z,4.47
2023-04-21T11:12:32.628Z,5.40
2023-04-21T11:15:03.055Z,5.00
2023-04-21T11:17:30.382Z,5.82
2023-04-21T11:19:57.662Z,6.07
2023-04-21T11:22:27.193Z,4.47
2023-04-21T11:24:57.347Z,5.50
2023-04-21T11:27:27.745Z,4.47
2023-04-21T11:29:55.074Z,4.45
2023-04-21T11:32:22.403Z,4.75
2023-04-21T11:34:49.884Z,4.57
2023-04-21T11:37:27.271Z,4.28
2023-04-21T11:40:01.797Z,4.38
2023-04-21T11:42:29.395Z,4.90
2023-04-21T11:45:01.706Z,4.40
2023-04-21T11:47:29.435Z,4.28
2023-04-21T11:49:58.547Z,5.55
2023-04-21T11:52:37.035Z,4.63
2023-04-21T11:55:12.006Z,5.07
2023-04-21T11:57:41.653Z,4.85
2023-04-21T12:00:15.875Z,4.65
2023-04-21T12:02:44.504Z,4.68
2023-04-21T12:05:13.977Z,4.78
2023-04-21T12:07:46.832Z,3.97
2023-04-21T12:10:19.738Z,4.15
2023-04-21T12:12:47.280Z,5.25
2023-04-21T12:15:24.436Z,4.60
2023-04-21T12:17:53.859Z,4.95
2023-04-21T12:20:22.871Z,5.15
2023-04-21T12:22:51.104Z,5.13
2023-04-21T12:25:18.514Z,4.50
2023-04-21T12:28:04.364Z,4.10
2023-04-21T12:30:32.156Z,4.30
2023-04-21T12:33:01.308Z,4.07
2023-04-21T12:35:28.998Z,5.18
2023-04-21T12:37:56.712Z,4.85
2023-04-21T12:40:27.393Z,4.57
2023-04-21T12:42:54.659Z,3.65
2023-04-21T12:45:21.881Z,5.57
2023-04-21T12:47:49.237Z,4.75
2023-04-21T12:50:16.678Z,3.83
2023-04-21T12:52:44.205Z,4.63
2023-04-21T12:55:13.701Z,4.85
2023-04-21T12:57:41.264Z,4.35
2023-04-21T13:00:13.349Z,3.92
2023-04-21T13:02:41.286Z,4.70
2023-04-21T13:05:10.671Z,4.75
2023-04-21T13:07:52.829Z,4.13
2023-04-21T13:10:20.247Z,4.55
2023-04-21T13:12:47.505Z,5.68
2023-04-21T13:15:14.895Z,4.47
2023-04-21T13:17:42.482Z,4.20
2023-04-21T13:20:10.272Z,4.10
2023-04-21T13:22:40.289Z,4.15
2023-04-21T13:25:08.884Z,4.38
2023-04-21T13:27:38.478Z,4.85
2023-04-21T13:30:10.152Z,4.07
2023-04-21T13:32:39.213Z,3.70
2023-04-21T13:35:09.566Z,4.65
2023-04-21T13:37:40.991Z,4.32
2023-04-21T13:40:10.505Z,3.63
2023-04-21T13:42:38.950Z,4.00
2023-04-21T13:45:07.425Z,4.28
2023-04-21T13:47:35.547Z,5.20
2023-04-21T13:50:03.355Z,4.13
2023-04-21T13:52:32.221Z,4.07
2023-04-21T13:54:59.434Z,4.53
2023-04-21T13:57:26.879Z,3.90
2023-04-21T13:59:54.551Z,4.15
2023-04-21T14:02:23.822Z,5.10
2023-04-21T14:04:52.118Z,4.72
2023-04-21T14:07:20.595Z,3.97
2023-04-21T14:09:47.836Z,3.88
2023-04-21T14:12:15.212Z,3.70
2023-04-21T14:14:42.637Z,4.05
2023-04-21T14:17:10.142Z,4.03
2023-04-21T14:19:37.451Z,4.38
2023-04-21T14:22:04.647Z,4.25
2023-04-21T14:24:32.643Z,3.67
2023-04-21T14:27:00.097Z,4.03
2023-04-21T14:29:27.481Z,3.80
2023-04-21T14:31:58.176Z,4.68
2023-04-21T14:34:26.532Z,3.55
2023-04-21T14:36:54.183Z,4.35
2023-04-21T14:39:21.473Z,3.53
2023-04-21T14:41:51.779Z,4.97
2023-04-21T14:44:19.373Z,3.92
2023-04-21T14:46:57.444Z,4.43
2023-04-21T14:49:31.599Z,4.45
2023-04-21T14:51:59.111Z,4.47
2023-04-21T14:54:26.457Z,4.90
2023-04-21T14:57:03.427Z,3.42
2023-04-21T14:59:38.595Z,4.82
2023-04-21T15:02:05.897Z,3.60
2023-04-21T15:04:33.615Z,3.83
2023-04-21T15:07:01.856Z,3.67
2023-04-21T15:09:29.365Z,5.40
2023-04-21T15:11:57.338Z,4.20
2023-04-21T15:14:24.568Z,4.38
2023-04-21T15:16:52.062Z,6.68
2023-04-21T15:19:19.726Z,3.75
2023-04-21T15:21:47.641Z,3.63
2023-04-21T15:24:14.861Z,4.38
2023-04-21T15:26:44.914Z,4.60
2023-04-21T15:29:12.114Z,4.35
2023-04-21T15:31:40.160Z,4.18
2023-04-21T15:34:07.540Z,5.57
2023-04-21T15:36:34.813Z,4.30
2023-04-21T15:39:02.228Z,3.83
2023-04-21T15:41:31.767Z,4.78
2023-04-21T15:44:00.243Z,4.47
2023-04-21T15:46:27.489Z,3.70
2023-04-21T15:48:54.871Z,3.42
2023-04-21T15:51:22.357Z,4.68
2023-04-21T15:53:50.064Z,4.07
2023-04-21T15:56:17.410Z,3.83
2023-04-21T15:58:44.774Z,5.05
2023-04-21T16:01:12.729Z,3.90
2023-04-21T16:03:40.687Z,3.72
2023-04-21T16:06:08.614Z,3.78
2023-04-21T16:08:36.092Z,3.88
2023-04-21T16:11:03.243Z,2.88
2023-04-21T16:13:30.692Z,3.42
2023-04-21T16:15:58.038Z,3.38
2023-04-21T16:18:25.920Z,3.55
2023-04-21T16:20:53.364Z,3.42
2023-04-21T16:23:20.745Z,3.40
2023-04-21T16:25:48.782Z,2.90
2023-04-21T16:28:16.237Z,3.80
2023-04-21T16:30:43.952Z,6.32
2023-04-21T16:33:11.694Z,3.10
2023-04-21T16:35:39.482Z,3.05
2023-04-21T16:38:07.149Z,3.70
2023-04-21T16:40:34.504Z,3.08
2023-04-21T16:43:02.134Z,4.07
2023-04-21T16:45:30.109Z,3.45
2023-04-21T16:47:58.191Z,4.78
2023-04-21T16:50:25.709Z,4.15
2023-04-21T16:52:52.899Z,3.78
2023-04-21T16:55:20.466Z,2.90
2023-04-21T16:57:47.997Z,3.08
2023-04-21T17:00:15.772Z,3.35
2023-04-21T17:02:44.066Z,3.60
2023-04-21T17:05:17.037Z,3.53
2023-04-21T17:07:45.283Z,2.90
2023-04-21T17:10:12.658Z,3.03
2023-04-21T17:12:40.019Z,3.03
2023-04-21T17:15:07.829Z,4.03
2023-04-21T17:17:43.151Z,3.22
2023-04-21T17:22:40.244Z,3.17
2023-04-21T17:25:17.738Z,3.22
2023-04-21T17:27:45.081Z,3.15
2023-04-21T17:30:14.334Z,3.63
2023-04-21T17:32:42.339Z,3.00
2023-04-21T17:35:09.904Z,3.20
2023-04-21T17:37:38.093Z,3.65
2023-04-21T17:40:23.082Z,4.10
2023-04-21T17:42:50.215Z,4.47
2023-04-21T17:45:17.872Z,4.30
2023-04-21T17:47:45.619Z,3.97
2023-04-21T17:50:23.558Z,4.22
2023-04-21T17:52:54.221Z,4.75
2023-04-21T17:55:21.813Z,4.30
2023-04-21T17:57:53.588Z,4.78
2023-04-21T18:00:20.817Z,4.00
2023-04-21T18:02:48.187Z,4.63
2023-04-21T18:05:16.137Z,4.13
2023-04-21T18:07:43.655Z,3.55
2023-04-21T18:10:11.299Z,4.30
2023-04-21T18:12:39.891Z,3.95
2023-04-21T18:15:08.236Z,4.85
2023-04-21T18:17:37.449Z,5.80
2023-04-21T18:20:05.619Z,3.78
2023-04-21T18:22:33.466Z,4.20
2023-04-21T18:25:00.976Z,3.78
2023-04-21T18:27:28.453Z,3.60
2023-04-21T18:29:56.080Z,4.05
2023-04-21T18:32:23.382Z,4.32
2023-04-21T18:34:50.724Z,3.92
2023-04-21T18:37:17.949Z,3.50
2023-04-21T18:39:45.196Z,3.75
2023-04-21T18:42:12.513Z,3.33
2023-04-21T18:44:40.236Z,4.15
2023-04-21T18:47:07.690Z,4.10
2023-04-21T18:49:35.134Z,3.75
2023-04-21T18:52:02.465Z,2.92
2023-04-21T18:54:33.471Z,3.55
2023-04-21T18:57:01.289Z,3.88
2023-04-21T18:59:28.458Z,3.70
2023-04-21T19:01:55.668Z,3.38
2023-04-21T19:04:23.214Z,4.50
2023-04-21T19:06:50.756Z,3.85
2023-04-21T19:09:17.880Z,3.72
2023-04-21T19:11:45.726Z,4.00
2023-04-21T19:14:13.200Z,3.38
2023-04-21T19:16:40.506Z,3.65
2023-04-21T19:19:07.689Z,3.95
2023-04-21T19:21:35.576Z,3.17
2023-04-21T19:24:02.870Z,3.90
2023-04-21T19:26:30.124Z,3.20
2023-04-21T19:28:57.567Z,2.95
2023-04-21T19:31:26.034Z,3.03
2023-04-21T19:33:53.564Z,2.85
2023-04-21T19:36:22.086Z,2.80
2023-04-21T19:38:50.109Z,3.80
2023-04-21T19:41:17.443Z,3.00
2023-04-21T19:43:44.721Z,5.70
2023-04-21T19:46:12.552Z,3.15
2023-04-21T19:48:42.545Z,3.05
2023-04-21T19:51:09.976Z,3.45
2023-04-21T19:53:37.274Z,2.80
2023-04-21T19:56:04.626Z,2.72
2023-04-21T19:58:40.365Z,3.08
2023-04-21T20:01:08.841Z,2.88
2023-04-21T20:03:36.297Z,2.58
2023-04-21T20:06:05.206Z,2.70
2023-04-21T20:08:32.789Z,2.80
2023-04-21T20:11:00.039Z,2.75
2023-04-21T20:13:27.417Z,4.68
2023-04-21T20:15:55.517Z,3.40
2023-04-21T20:18:23.180Z,2.90
2023-04-21T20:20:50.496Z,2.90
2023-04-21T20:23:18.124Z,3.00
2023-04-21T20:25:45.521Z,2.50
2023-04-21T20:28:13.418Z,2.50
2023-04-21T20:30:40.475Z,2.88
2023-04-21T20:33:07.938Z,2.50
2023-04-21T20:35:39.609Z,3.38
2023-04-21T20:38:08.196Z,2.88
2023-04-21T20:40:36.201Z,3.22
2023-04-21T20:43:06.664Z,2.85
2023-04-21T20:45:34.816Z,2.63
2023-04-21T20:48:02.198Z,3.08
2023-04-21T20:50:29.702Z,3.05
2023-04-21T20:52:57.015Z,2.70
2023-04-21T20:55:24.593Z,3.22
2023-04-21T20:57:53.376Z,2.63
2023-04-21T21:00:20.854Z,2.10
2023-04-21T21:02:48.278Z,2.40
2023-04-21T21:05:15.790Z,2.83
2023-04-21T21:07:44.078Z,3.38
2023-04-21T21:10:11.736Z,4.65
2023-04-21T21:12:39.202Z,2.40
2023-04-21T21:15:07.210Z,3.55
2023-04-21T21:17:35.899Z,2.67
2023-04-21T21:20:03.649Z,2.70
2023-04-21T21:22:30.933Z,3.05
2023-04-21T21:24:58.259Z,3.58
2023-04-21T21:27:25.551Z,2.50
2023-04-21T21:29:52.793Z,2.53
2023-04-21T21:32:20.324Z,2.50
2023-04-21T21:34:58.285Z,2.45
2023-04-21T21:37:25.767Z,2.30
2023-04-21T21:39:55.113Z,2.42
2023-04-21T21:42:22.911Z,2.78
2023-04-21T21:44:50.267Z,2.45
2023-04-21T21:47:20.310Z,2.30
2023-04-21T21:49:47.666Z,2.38
2023-04-21T21:52:17.417Z,2.75
2023-04-21T21:54:44.630Z,3.05
2023-04-21T21:57:12.115Z,3.63
2023-04-21T21:59:40.026Z,2.90
2023-04-21T22:02:07.684Z,2.65
2023-04-21T22:04:35.020Z,2.92
2023-04-21T22:07:02.135Z,2.95
2023-04-21T22:09:29.570Z,2.72
2023-04-21T22:11:57.252Z,2.22
2023-04-21T22:14:24.900Z,3.13
2023-04-21T22:16:57.609Z,3.75
2023-04-21T22:19:26.232Z,2.35
2023-04-21T22:21:53.531Z,2.40
2023-04-21T22:24:20.848Z,2.03
2023-04-21T22:26:48.449Z,2.28
2023-04-21T22:29:16.016Z,2.15
2023-04-21T22:31:43.340Z,2.83
2023-04-21T22:34:10.887Z,2.05
2023-04-21T22:36:38.196Z,2.13
2023-04-21T22:39:05.327Z,2.75
2023-04-21T22:41:32.786Z,2.00
2023-04-21T22:44:00.410Z,2.15
2023-04-21T22:46:33.628Z,2.15
2023-04-21T22:49:05.354Z,2.40
2023-04-21T22:51:33.386Z,2.70
2023-04-21T22:54:00.944Z,2.30
2023-04-21T22:56:30.157Z,1.85
2023-04-21T22:59:09.724Z,2.97
2023-04-21T23:01:37.096Z,2.22
2023-04-21T23:04:04.652Z,2.42
2023-04-21T23:06:32.299Z,2.13
2023-04-21T23:08:59.652Z,2.00
2023-04-21T23:11:26.766Z,2.75
2023-04-21T23:13:53.942Z,3.17
2023-04-21T23:16:22.435Z,2.28
2023-04-21T23:18:49.877Z,2.05
2023-04-21T23:21:17.370Z,2.45
2023-04-21T23:23:44.588Z,2.15
2023-04-21T23:26:11.839Z,1.95
2023-04-21T23:28:38.975Z,2.10
2023-04-21T23:31:06.635Z,1.75
2023-04-21T23:33:34.048Z,2.45
2023-04-21T23:36:01.559Z,2.35
2023-04-21T23:38:29.051Z,2.90
2023-04-21T23:40:56.271Z,2.33
2023-04-21T23:43:23.703Z,2.60
2023-04-21T23:45:51.454Z,2.28
2023-04-21T23:48:18.749Z,2.95
2023-04-21T23:50:46.389Z,2.90
2023-04-21T23:53:13.754Z,2.80
2023-04-21T23:55:41.247Z,2.20
2023-04-21T23:58:08.625Z,2.45
